Terminal Aerodrome Forecast
Issued by NWS

Home | Current Version | Previous Version | Text Only | Print | Product List | Glossary Off
Versions: 1 2 3 4 5 6 7 8 9 10 11 12 13

000
FTUS45 KGGW 220535
TAFOLF
TAF
KOLF 220535Z 2206/2306 23008KT 5SM -RA SCT050 OVC080
     FM220900 25005KT P6SM VCSH SCT080 BKN120
     FM221600 24013KT P6SM FEW250
     FM230200 25008KT P6SM SCT200=

USA.gov is the U.S. government's official web portal to all federal, state and local government web resources and services.